Terminal Aerodrome Forecast
Issued by NWS

Home | Current Version | Previous Version | Text Only | Print | Product List | Glossary On
Versions: 1 2 3 4 5 6 7 8 9 10 11 12 13 14 15 16 17 18 19 20 21 22 23 24 25 26 27 28 29 30 31 32 33 34 35 36 37 38 39 40 41 42 43 44 45 46 47 48 49 50
842
FTUS43 KLOT 221952 AAB
TAFDPA
TAF AMD
KDPA 221952Z 2220/2318 22012G20KT 6SM -SHRA BR VCTS SCT008 BKN035CB
      OVC080
      TEMPO 2221/2223 2SM +SHRA BR BKN012
     FM230100 25011KT 5SM -SHRA BR BKN015
     FM230400 29011KT P6SM VCSH BKN015
     FM230800 30011KT P6SM SCT010 BKN030
     FM231100 30010KT P6SM SCT250=

USA.gov is the U.S. government's official web portal to all federal, state and local government web resources and services.